Time;durP1;ratioP1;P1;durP2;ratioP2;P2;SDS_P1;SDS_P2;PMS_P1;PMS_P2;Temp;Humidity;BMP_temperature;BMP_pressure;BME280_temperature;BME280_humidity;BME280_pressure;Samples;Min_cycle;Max_cycle;Signal;HPM_P1;HPM_P2
2023/03/26 00:01:45;;;;;;;0.77;0.60;;;;;;;9.88;67.79;94749.69;4993536;28;20493;-74
2023/03/26 00:04:11;;;;;;;2.35;1.05;;;;;;;9.91;68.02;94775.63;4994404;28;20153;-75
2023/03/26 00:06:38;;;;;;;0.93;0.70;;;;;;;9.93;68.51;94764.72;4992403;28;20049;-74
2023/03/26 00:09:09;;;;;;;2.67;0.68;;;;;;;9.64;68.75;94756.78;4992614;28;20026;-75
2023/03/26 00:11:34;;;;;;;0.75;0.60;;;;;;;9.28;68.79;94698.84;4992778;28;20176;-75
2023/03/26 00:14:01;;;;;;;2.53;0.88;;;;;;;9.56;68.74;94765.31;4973364;28;20031;-76
2023/03/26 00:16:29;;;;;;;1.08;0.70;;;;;;;9.33;69.01;94703.28;4994595;28;20035;-76
2023/03/26 00:18:56;;;;;;;1.35;0.77;;;;;;;9.65;68.60;94748.56;4997728;28;20034;-74
2023/03/26 00:21:27;;;;;;;2.15;0.70;;;;;;;9.51;68.54;94699.19;4978389;28;20129;-74
2023/03/26 00:24:05;;;;;;;2.13;1.02;;;;;;;9.21;68.49;94649.94;4995257;28;20100;-74
2023/03/26 00:26:33;;;;;;;1.45;0.93;;;;;;;9.78;69.07;94747.13;4977777;28;20030;-75
2023/03/26 00:28:59;;;;;;;1.17;0.70;;;;;;;9.73;68.41;94744.53;4994742;28;20034;-75
2023/03/26 00:31:25;;;;;;;0.73;0.70;;;;;;;9.44;67.92;94691.56;4994938;28;20104;-75
2023/03/26 00:33:54;;;;;;;1.00;0.60;;;;;;;9.52;68.04;94698.13;4994669;28;20062;-75
2023/03/26 00:36:21;;;;;;;1.00;0.60;;;;;;;9.82;67.76;94742.06;4994734;28;20038;-75
2023/03/26 00:38:47;;;;;;;1.10;0.70;;;;;;;9.64;67.71;94748.84;4994587;28;20034;-75
2023/03/26 00:41:16;;;;;;;0.90;0.68;;;;;;;9.46;68.47;94718.53;4977114;28;20165;-75
2023/03/26 00:43:44;;;;;;;1.30;0.65;;;;;;;9.68;68.13;94742.72;4994528;28;20030;-76
2023/03/26 00:46:10;;;;;;;3.50;0.90;;;;;;;9.33;68.33;94686.63;4994435;28;20029;-74
2023/03/26 00:48:37;;;;;;;2.63;0.80;;;;;;;9.48;67.63;94705.00;4994698;28;20026;-74
2023/03/26 00:51:05;;;;;;;0.95;0.75;;;;;;;9.67;67.92;94753.59;4995345;28;20038;-74
2023/03/26 00:53:30;;;;;;;1.25;0.75;;;;;;;9.80;67.62;94749.50;4977030;28;20089;-74
2023/03/26 00:55:59;;;;;;;1.52;0.68;;;;;;;9.76;67.96;94753.78;4994594;28;20157;-75
2023/03/26 00:58:25;;;;;;;0.93;0.60;;;;;;;9.34;67.33;94675.75;4994373;28;20042;-76
2023/03/26 01:00:57;;;;;;;1.30;1.17;;;;;;;9.62;67.21;94713.91;4976941;28;20501;-74
2023/03/26 01:03:27;;;;;;;1.00;0.57;;;;;;;9.89;66.71;94747.81;4992905;28;20038;-75
2023/03/26 01:06:03;;;;;;;0.70;0.70;;;;;;;9.96;66.24;94746.44;4973385;28;20034;-75
2023/03/26 01:08:49;;;;;;;0.60;0.60;;;;;;;9.92;65.52;94744.59;4992127;28;20034;-74
2023/03/26 01:11:22;;;;;;;1.17;0.68;;;;;;;9.90;65.75;94752.06;4966753;28;20034;-75
2023/03/26 01:14:10;;;;;;;1.25;0.50;;;;;;;9.64;65.23;94714.41;4994089;28;20038;-75
2023/03/26 01:16:40;;;;;;;1.00;0.70;;;;;;;9.40;65.31;94673.84;4993996;28;20480;-74
2023/03/26 01:19:15;;;;;;;0.88;0.77;;;;;;;9.96;65.72;94762.31;4994886;28;20121;-74
2023/03/26 01:21:41;;;;;;;1.60;0.85;;;;;;;9.86;65.75;94754.47;4994818;28;20121;-74
2023/03/26 01:24:08;;;;;;;0.77;0.60;;;;;;;9.83;65.72;94759.53;4994329;28;20066;-75
2023/03/26 01:27:08;;;;;;;0.63;0.60;;;;;;;9.87;66.05;94763.19;4977017;28;20037;-75
2023/03/26 01:29:40;;;;;;;0.90;0.60;;;;;;;9.88;65.94;94770.88;4981514;28;20561;-75
2023/03/26 01:32:23;;;;;;;1.70;1.00;;;;;;;9.81;66.66;94769.63;4994092;28;20062;-75
2023/03/26 01:35:01;;;;;;;3.67;0.93;;;;;;;9.72;66.68;94773.91;4976576;28;20084;-75
2023/03/26 01:37:58;;;;;;;3.08;1.20;;;;;;;9.75;66.60;94774.16;4988766;28;20046;-76
2023/03/26 01:40:27;;;;;;;1.08;0.95;;;;;;;9.67;67.17;94780.84;4994113;28;20406;-75
2023/03/26 01:43:04;;;;;;;1.40;1.10;;;;;;;9.59;67.34;94781.44;4994627;28;20022;-75
2023/03/26 01:45:34;;;;;;;1.13;0.90;;;;;;;9.59;67.63;94783.31;4976563;28;20584;-75
2023/03/26 01:48:01;;;;;;;2.15;1.17;;;;;;;9.33;67.97;94739.53;4971860;28;20560;-78
2023/03/26 01:50:26;;;;;;;1.55;1.05;;;;;;;9.34;68.03;94749.84;4983165;28;20097;-78
2023/03/26 01:52:52;;;;;;;1.10;0.90;;;;;;;9.53;67.56;94752.66;4971696;28;20038;-79
2023/03/26 01:55:17;;;;;;;3.50;1.10;;;;;;;9.61;67.65;94781.94;4984892;28;20034;-78
2023/03/26 01:58:05;;;;;;;0.93;0.82;;;;;;;9.83;67.70;94786.03;4992278;28;20109;-78
2023/03/26 02:00:36;;;;;;;1.65;1.10;;;;;;;9.25;68.09;94722.41;4991965;28;20042;-79
2023/03/26 02:03:30;;;;;;;3.55;1.00;;;;;;;9.37;68.05;94751.16;4972074;28;20047;-78
2023/03/26 02:06:05;;;;;;;1.88;1.08;;;;;;;9.57;67.85;94793.38;4971888;28;20034;-78
2023/03/26 02:08:34;;;;;;;1.17;0.98;;;;;;;9.56;68.63;94778.53;4991460;28;20034;-78
2023/03/26 02:11:03;;;;;;;1.20;0.85;;;;;;;9.41;68.78;94752.19;4970654;28;20119;-78
2023/03/26 02:13:29;;;;;;;1.90;1.15;;;;;;;9.50;68.41;94769.06;4971669;28;20032;-78
2023/03/26 02:15:59;;;;;;;2.13;1.42;;;;;;;9.42;68.93;94756.41;4973051;28;20121;-78
2023/03/26 02:18:34;;;;;;;1.70;1.02;;;;;;;9.25;68.96;94733.78;4991130;28;20030;-79
2023/03/26 02:21:11;;;;;;;2.22;1.27;;;;;;;9.28;69.32;94743.81;4974406;28;20038;-79
2023/03/26 02:23:40;;;;;;;2.95;1.40;;;;;;;9.29;69.80;94763.94;4974093;28;20038;-78
2023/03/26 02:26:08;;;;;;;2.30;1.70;;;;;;;9.44;69.45;94778.91;4973792;28;20037;-79
2023/03/26 02:28:34;;;;;;;2.33;1.40;;;;;;;9.40;70.04;94775.22;4973606;28;20030;-79
2023/03/26 02:31:00;;;;;;;2.03;1.20;;;;;;;8.76;70.36;94701.31;4991386;28;20085;-79
2023/03/26 02:33:27;;;;;;;1.80;1.50;;;;;;;9.13;69.77;94753.72;4991585;28;20110;-79
2023/03/26 02:35:53;;;;;;;2.10;1.70;;;;;;;8.64;70.19;94684.97;4991539;28;20118;-79
2023/03/26 02:38:18;;;;;;;1.48;1.13;;;;;;;8.78;70.31;94729.03;4990238;28;20057;-79
2023/03/26 02:40:43;;;;;;;5.45;2.22;;;;;;;9.22;70.62;94789.09;4970464;28;20065;-79
2023/03/26 02:43:09;;;;;;;1.38;1.27;;;;;;;9.13;70.16;94788.09;4966134;28;20035;-79
2023/03/26 02:45:35;;;;;;;2.38;1.30;;;;;;;9.19;70.29;94802.88;4990925;28;20038;-79
2023/03/26 02:48:00;;;;;;;2.72;1.42;;;;;;;8.99;70.19;94750.09;4990756;28;20035;-79
2023/03/26 02:50:26;;;;;;;1.98;1.45;;;;;;;9.06;70.61;94766.44;4970235;28;20027;-79
2023/03/26 02:52:52;;;;;;;1.38;1.23;;;;;;;8.93;70.33;94770.47;4987657;28;20112;-79
2023/03/26 02:55:18;;;;;;;1.85;1.40;;;;;;;8.91;70.77;94754.09;4991093;28;20030;-79
2023/03/26 02:57:44;;;;;;;3.85;1.42;;;;;;;9.23;70.48;94836.44;4990325;28;20085;-79
2023/03/26 03:00:13;;;;;;;1.40;1.30;;;;;;;9.04;71.32;94808.25;4982379;28;20037;-79
2023/03/26 03:02:40;;;;;;;6.45;1.50;;;;;;;8.88;72.42;94818.09;4989364;28;20470;-79
2023/03/26 03:05:06;;;;;;;1.88;1.40;;;;;;;8.49;72.45;94781.75;4973079;28;20041;-79
2023/03/26 03:07:36;;;;;;;4.47;1.60;;;;;;;8.30;72.37;94742.97;4990413;28;20450;-78
2023/03/26 03:10:03;;;;;;;2.55;1.50;;;;;;;8.37;71.89;94752.22;4972825;28;20484;-79
2023/03/26 03:12:28;;;;;;;1.77;1.40;;;;;;;8.70;72.03;94776.38;4990806;28;20485;-79
2023/03/26 03:14:54;;;;;;;2.38;1.63;;;;;;;8.55;71.48;94781.72;4990805;28;20108;-79
2023/03/26 03:17:19;;;;;;;2.55;1.40;;;;;;;8.22;71.96;94741.66;4990506;28;20041;-79
2023/03/26 03:19:45;;;;;;;1.63;1.45;;;;;;;8.31;71.93;94763.06;4989763;28;20061;-79
2023/03/26 03:22:11;;;;;;;3.08;1.60;;;;;;;7.98;72.13;94728.25;4990455;28;20156;-79
2023/03/26 03:24:37;;;;;;;4.60;1.70;;;;;;;8.00;72.33;94720.88;4990451;28;20058;-79
2023/03/26 03:27:03;;;;;;;2.72;1.98;;;;;;;8.44;71.91;94792.34;4990835;28;20485;-79
2023/03/26 03:29:29;;;;;;;2.35;2.00;;;;;;;8.31;71.85;94768.38;4989696;28;20065;-78
2023/03/26 03:31:54;;;;;;;3.15;2.13;;;;;;;8.26;71.63;94763.03;4990057;28;20535;-79
2023/03/26 03:34:20;;;;;;;3.10;2.55;;;;;;;8.56;71.76;94810.53;4990428;28;20481;-79
2023/03/26 03:36:47;;;;;;;3.45;2.97;;;;;;;8.37;71.76;94780.50;4989803;28;20046;-78
2023/03/26 03:39:13;;;;;;;5.43;3.17;;;;;;;8.64;71.17;94830.34;4989586;28;20113;-79
2023/03/26 03:41:39;;;;;;;5.38;3.40;;;;;;;8.16;71.92;94765.72;4990169;28;20022;-78
2023/03/26 03:44:04;;;;;;;7.43;3.13;;;;;;;8.19;71.35;94751.97;4989690;28;20065;-78
2023/03/26 03:46:30;;;;;;;3.80;2.90;;;;;;;8.35;71.68;94801.88;4989581;28;20028;-78
2023/03/26 03:48:56;;;;;;;4.18;3.00;;;;;;;8.13;71.80;94749.34;4989797;28;20085;-78
2023/03/26 03:51:22;;;;;;;4.03;3.05;;;;;;;7.81;71.79;94713.75;4989539;28;20049;-79
2023/03/26 03:53:48;;;;;;;5.95;3.72;;;;;;;8.23;71.93;94793.44;4972274;28;20394;-78
2023/03/26 03:56:16;;;;;;;4.75;3.67;;;;;;;8.48;71.79;94832.25;4989654;28;20034;-78
2023/03/26 03:58:44;;;;;;;4.63;2.78;;;;;;;8.58;71.99;94845.44;4990043;28;20400;-78
2023/03/26 04:01:12;;;;;;;3.83;2.90;;;;;;;8.11;72.04;94791.06;4989470;28;20042;-79
2023/03/26 04:03:38;;;;;;;7.53;3.03;;;;;;;8.09;72.30;94777.34;4989776;28;20023;-78
2023/03/26 04:06:05;;;;;;;4.57;3.35;;;;;;;8.00;72.43;94762.31;4970996;28;20061;-78
2023/03/26 04:08:31;;;;;;;4.88;2.95;;;;;;;8.18;72.52;94817.22;4989718;28;20105;-78
2023/03/26 04:10:56;;;;;;;3.83;3.17;;;;;;;8.46;72.62;94843.09;4971681;28;20546;-78
2023/03/26 04:13:22;;;;;;;5.13;3.50;;;;;;;8.16;72.32;94781.56;4972377;28;20121;-79
2023/03/26 04:15:47;;;;;;;6.80;4.05;;;;;;;7.63;72.38;94720.38;4972006;28;20018;-78
2023/03/26 04:18:13;;;;;;;16.52;4.93;;;;;;;8.05;72.62;94797.44;4971998;28;20038;-78
2023/03/26 04:20:45;;;;;;;6.93;3.75;;;;;;;8.50;72.62;94875.06;4989070;28;20034;-79
2023/03/26 04:23:18;;;;;;;8.10;4.20;;;;;;;8.56;72.35;94881.91;4989673;28;20033;-79
2023/03/26 04:25:47;;;;;;;8.48;4.80;;;;;;;7.99;72.05;94805.63;4971979;28;20440;-78
2023/03/26 04:28:27;;;;;;;8.82;4.70;;;;;;;8.06;72.13;94814.06;4989521;28;20358;-78
2023/03/26 04:30:55;;;;;;;6.75;4.78;;;;;;;8.54;72.26;94889.34;4971472;28;20469;-78
2023/03/26 04:33:23;;;;;;;5.32;4.55;;;;;;;8.76;72.00;94921.53;4970643;28;20038;-78
2023/03/26 04:35:49;;;;;;;6.43;4.25;;;;;;;8.74;71.71;94904.34;4988224;28;20053;-79
2023/03/26 04:38:17;;;;;;;10.55;4.10;;;;;;;8.94;71.50;94924.66;4971336;28;20149;-78
2023/03/26 04:40:46;;;;;;;9.35;4.40;;;;;;;8.86;70.93;94924.16;4989351;28;20485;-79
2023/03/26 04:43:15;;;;;;;6.57;4.20;;;;;;;8.81;71.26;94931.31;4989429;28;20442;-78
2023/03/26 04:45:42;;;;;;;8.18;4.22;;;;;;;8.81;70.96;94940.03;4971847;28;20045;-78
2023/03/26 04:48:13;;;;;;;4.90;3.90;;;;;;;8.48;70.50;94899.09;4971535;28;20763;-78
2023/03/26 04:50:42;;;;;;;12.23;4.85;;;;;;;8.87;70.43;94932.88;4989157;28;20084;-79
2023/03/26 04:53:12;;;;;;;7.07;4.63;;;;;;;8.53;69.72;94903.59;4989329;28;20039;-78
2023/03/26 04:56:00;;;;;;;8.25;4.38;;;;;;;8.70;70.83;94935.81;4971962;28;20472;-78
2023/03/26 04:58:31;;;;;;;7.32;4.45;;;;;;;8.84;70.37;94944.00;4971693;28;20046;-79
2023/03/26 05:00:59;;;;;;;7.65;4.85;;;;;;;8.97;69.55;94940.78;4989610;28;20105;-78
2023/03/26 05:03:30;;;;;;;9.63;4.95;;;;;;;8.84;69.12;94915.72;4990238;28;20520;-78
2023/03/26 05:05:59;;;;;;;7.50;5.28;;;;;;;9.01;68.72;94931.25;4992676;28;20022;-79
2023/03/26 05:08:25;;;;;;;10.10;5.22;;;;;;;9.06;68.74;94933.09;4975113;28;20037;-78
2023/03/26 05:10:51;;;;;;;9.15;5.18;;;;;;;8.23;68.54;94804.00;4992865;28;20038;-78
2023/03/26 05:13:16;;;;;;;5.07;4.47;;;;;;;8.83;68.26;94919.41;4974942;28;20034;-78
2023/03/26 05:15:42;;;;;;;10.15;5.88;;;;;;;8.28;68.72;94837.53;4992997;28;20053;-79
2023/03/26 05:18:07;;;;;;;14.10;5.93;;;;;;;9.04;68.82;94941.28;4973796;28;20031;-78
2023/03/26 05:20:33;;;;;;;17.63;7.15;;;;;;;9.07;68.53;94946.06;4991556;28;20037;-78
2023/03/26 05:22:58;;;;;;;8.13;5.95;;;;;;;8.63;68.23;94873.69;4971406;28;20493;-78
2023/03/26 05:25:24;;;;;;;8.65;5.78;;;;;;;8.68;67.80;94897.50;4991238;28;20038;-78
2023/03/26 05:27:50;;;;;;;8.73;6.15;;;;;;;8.59;68.11;94889.31;4992636;28;20035;-79
2023/03/26 05:30:19;;;;;;;16.63;7.32;;;;;;;9.00;68.58;94950.81;4991961;28;20096;-78
2023/03/26 05:32:50;;;;;;;10.88;7.28;;;;;;;8.23;69.44;94891.19;4992094;28;20630;-77
2023/03/26 05:35:17;;;;;;;10.80;7.15;;;;;;;8.07;70.04;94890.41;4992790;28;20026;-77
2023/03/26 05:37:44;;;;;;;10.52;7.57;;;;;;;8.54;70.85;94986.34;4985724;28;20039;-78
2023/03/26 05:40:15;;;;;;;9.45;7.65;;;;;;;8.16;71.07;94906.50;4982311;28;20428;-78
2023/03/26 05:42:41;;;;;;;10.32;8.15;;;;;;;8.32;70.73;94923.94;4992139;28;20049;-78
2023/03/26 05:45:09;;;;;;;11.35;8.27;;;;;;;8.50;71.04;94959.63;4992409;28;20113;-78
2023/03/26 05:47:35;;;;;;;13.27;8.82;;;;;;;8.43;70.73;94932.69;4971777;28;20044;-79
2023/03/26 05:50:00;;;;;;;11.52;8.30;;;;;;;8.49;70.61;94961.47;4986721;28;20108;-79
2023/03/26 05:52:26;;;;;;;10.75;7.85;;;;;;;8.62;70.24;94956.72;4991988;28;20053;-78
2023/03/26 05:54:51;;;;;;;14.05;9.27;;;;;;;8.11;70.43;94907.28;4974268;28;20113;-78
2023/03/26 05:57:17;;;;;;;10.88;8.05;;;;;;;8.25;70.61;94941.88;4974397;28;20045;-78
2023/03/26 05:59:43;;;;;;;10.13;7.93;;;;;;;8.30;70.63;94926.06;4974284;28;20034;-78
2023/03/26 06:02:10;;;;;;;10.63;7.80;;;;;;;8.57;70.65;94962.78;4991410;28;20484;-78
2023/03/26 06:04:39;;;;;;;12.43;8.02;;;;;;;8.31;70.20;94927.69;4976318;28;20105;-78
2023/03/26 06:07:08;;;;;;;11.63;8.25;;;;;;;8.59;70.26;94960.69;4992176;28;20137;-78
2023/03/26 06:09:37;;;;;;;15.57;9.32;;;;;;;8.43;70.06;94920.25;4992091;28;20473;-78
2023/03/26 06:12:04;;;;;;;16.55;9.55;;;;;;;8.42;69.68;94888.81;4984335;28;20034;-79
2023/03/26 06:14:30;;;;;;;10.80;8.50;;;;;;;8.92;68.06;94945.31;4973363;28;20037;-79
2023/03/26 06:16:55;;;;;;;13.70;8.50;;;;;;;8.56;67.53;94889.03;4991357;28;20437;-79
2023/03/26 06:19:21;;;;;;;10.52;8.05;;;;;;;8.69;67.37;94904.38;4991847;28;20041;-79
2023/03/26 06:21:46;;;;;;;12.95;7.95;;;;;;;8.89;67.31;94952.72;4991785;28;20407;-78
2023/03/26 06:24:12;;;;;;;11.93;8.02;;;;;;;8.57;67.17;94888.78;4983005;28;20136;-79
2023/03/26 06:26:37;;;;;;;14.23;8.60;;;;;;;8.75;67.09;94911.22;4987874;28;20029;-78
2023/03/26 06:29:02;;;;;;;10.80;8.63;;;;;;;9.08;67.41;94958.19;4991505;28;20110;-79
2023/03/26 06:31:28;;;;;;;13.05;8.35;;;;;;;8.76;67.26;94903.03;4991339;28;20104;-78
2023/03/26 06:33:53;;;;;;;13.57;9.32;;;;;;;8.86;67.29;94895.06;4991439;28;20551;-78
2023/03/26 06:36:19;;;;;;;13.93;9.82;;;;;;;9.28;67.15;94954.72;4990585;28;20535;-78
2023/03/26 06:38:44;;;;;;;13.45;9.07;;;;;;;8.93;66.87;94917.78;4990973;28;20046;-78
2023/03/26 06:41:10;;;;;;;15.40;8.93;;;;;;;9.19;67.08;94954.47;4991065;28;20086;-79
2023/03/26 06:43:36;;;;;;;15.90;9.25;;;;;;;9.22;67.17;94953.16;4991338;28;20026;-79
2023/03/26 06:46:02;;;;;;;13.18;9.45;;;;;;;9.35;67.18;94960.50;4970180;28;20405;-78
2023/03/26 06:48:28;;;;;;;23.13;10.70;;;;;;;8.97;66.58;94902.97;4981278;28;20031;-79
2023/03/26 06:50:54;;;;;;;18.38;9.55;;;;;;;9.07;66.35;94902.94;4970473;28;20031;-79
2023/03/26 06:53:19;;;;;;;11.02;9.13;;;;;;;8.89;65.89;94865.44;4967470;28;20041;-79
2023/03/26 06:55:45;;;;;;;12.07;9.27;;;;;;;9.52;65.55;94965.47;4972955;28;20041;-78
2023/03/26 06:58:11;;;;;;;11.13;8.63;;;;;;;9.64;64.07;94969.38;4990421;28;20099;-78
2023/03/26 07:00:37;;;;;;;10.40;7.65;;;;;;;9.41;63.77;94971.88;4970187;28;20035;-79
2023/03/26 07:03:03;;;;;;;17.85;8.85;;;;;;;9.15;63.01;94926.19;4989583;28;20157;-78
2023/03/26 07:05:29;;;;;;;12.18;7.80;;;;;;;9.46;62.93;94988.50;4989827;28;20051;-78
2023/03/26 07:07:55;;;;;;;11.27;8.45;;;;;;;9.47;63.35;94981.38;4990584;28;20026;-78
2023/03/26 07:10:20;;;;;;;13.35;7.90;;;;;;;9.01;63.39;94938.38;4990702;28;20153;-78
2023/03/26 07:12:46;;;;;;;11.27;7.10;;;;;;;9.19;63.11;94951.84;4990937;28;20048;-79
2023/03/26 07:15:11;;;;;;;12.93;7.72;;;;;;;9.28;62.83;94967.94;4990801;28;20058;-79
2023/03/26 07:17:38;;;;;;;9.60;6.95;;;;;;;9.42;62.43;94981.38;4990382;28;20517;-78
2023/03/26 07:20:06;;;;;;;16.10;8.77;;;;;;;9.38;62.88;94954.69;4990477;28;20037;-78
2023/03/26 07:22:31;;;;;;;22.48;10.65;;;;;;;9.56;62.75;94954.06;4972736;28;20037;-78
2023/03/26 07:24:57;;;;;;;10.95;8.05;;;;;;;9.69;62.21;94958.75;4990490;28;20022;-79
2023/03/26 07:27:31;;;;;;;11.13;8.68;;;;;;;9.69;62.05;94974.66;4971692;28;20022;-78
2023/03/26 07:30:04;;;;;;;12.25;8.38;;;;;;;9.07;61.88;94879.94;4990252;28;20100;-79
2023/03/26 07:32:32;;;;;;;11.35;8.05;;;;;;;9.72;61.24;94975.97;4990417;28;20035;-79
2023/03/26 07:35:07;;;;;;;9.23;6.43;;;;;;;9.60;60.23;94959.63;4990510;28;20540;-79
2023/03/26 07:37:44;;;;;;;9.43;7.05;;;;;;;9.15;60.96;94900.53;4989631;28;20046;-79
2023/03/26 07:40:36;;;;;;;8.98;6.72;;;;;;;9.57;60.79;94968.88;4990062;28;20504;-78
2023/03/26 07:43:19;;;;;;;13.35;8.68;;;;;;;9.67;60.99;94960.91;4969230;28;20034;-79
2023/03/26 07:45:46;;;;;;;13.02;8.88;;;;;;;9.50;61.03;94914.66;4980932;28;20165;-79
2023/03/26 07:48:20;;;;;;;17.17;10.32;;;;;;;9.88;60.50;94960.78;4989576;28;20433;-79
2023/03/26 07:50:46;;;;;;;12.75;8.75;;;;;;;9.97;60.27;94959.94;4990217;28;20417;-78
2023/03/26 07:53:11;;;;;;;11.07;7.35;;;;;;;9.63;59.50;94884.91;4990043;28;20034;-79
2023/03/26 07:55:56;;;;;;;13.52;7.55;;;;;;;9.90;58.73;94917.06;4989626;28;20037;-79
2023/03/26 07:58:52;;;;;;;12.75;6.90;;;;;;;10.16;59.61;94959.28;4971902;28;20413;-79
2023/03/26 08:01:45;;;;;;;13.50;7.65;;;;;;;10.15;58.89;94920.59;4968953;28;20034;-79
2023/03/26 08:04:37;;;;;;;16.20;7.38;;;;;;;10.32;59.71;94945.69;4962063;28;20520;-79
2023/03/26 08:07:24;;;;;;;13.80;7.05;;;;;;;10.40;57.73;94957.53;4989757;28;20089;-78
2023/03/26 08:09:59;;;;;;;10.50;6.03;;;;;;;10.31;55.99;94952.03;4971954;28;20034;-79
2023/03/26 08:12:46;;;;;;;9.10;6.35;;;;;;;10.28;56.98;94949.16;4989709;28;20089;-79
2023/03/26 08:15:32;;;;;;;7.75;5.07;;;;;;;10.36;54.84;94941.41;4970426;28;20034;-79
2023/03/26 08:18:19;;;;;;;9.60;4.88;;;;;;;10.41;53.78;94946.66;4988897;28;20416;-78
2023/03/26 08:20:48;;;;;;;9.10;4.97;;;;;;;9.79;53.05;94857.28;4969044;28;20034;-78
2023/03/26 08:23:40;;;;;;;6.60;4.93;;;;;;;10.30;52.68;94931.91;4989141;28;20103;-79
2023/03/26 08:26:12;;;;;;;7.22;4.20;;;;;;;10.54;50.14;94969.09;4989779;28;20042;-79
2023/03/26 08:29:05;;;;;;;10.15;3.83;;;;;;;10.59;50.50;94939.91;4988688;28;20433;-78
2023/03/26 08:31:34;;;;;;;7.55;4.93;;;;;;;10.63;52.35;94932.97;4982901;28;20544;-79
2023/03/26 08:34:00;;;;;;;7.20;5.25;;;;;;;10.64;52.11;94937.19;4973912;28;20030;-79
2023/03/26 08:36:26;;;;;;;12.88;5.32;;;;;;;10.24;52.01;94855.38;4985742;28;20045;-78
2023/03/26 08:38:52;;;;;;;12.88;5.30;;;;;;;10.26;52.14;94855.88;4974754;28;20089;-79
2023/03/26 08:41:42;;;;;;;10.70;4.80;;;;;;;10.88;51.62;94961.13;4993137;28;20039;-78
2023/03/26 08:44:12;;;;;;;10.82;5.00;;;;;;;11.00;51.11;94955.41;4972277;28;20038;-79
2023/03/26 08:46:56;;;;;;;6.45;5.10;;;;;;;10.97;51.31;94948.81;4992414;28;20034;-79
2023/03/26 08:49:37;;;;;;;8.70;5.28;;;;;;;11.07;51.73;94943.41;4982446;28;20038;-78
2023/03/26 08:52:35;;;;;;;7.93;4.55;;;;;;;11.15;50.69;94939.34;4972319;28;20046;-79
2023/03/26 08:55:29;;;;;;;5.78;3.70;;;;;;;11.25;50.96;94944.53;4985475;28;20038;-79
2023/03/26 08:58:32;;;;;;;8.55;3.80;;;;;;;11.30;50.01;94941.81;4922674;28;20063;-78
2023/03/26 09:01:15;;;;;;;5.60;3.80;;;;;;;11.32;48.71;94947.63;4984972;28;20111;-79
2023/03/26 09:04:16;;;;;;;6.13;3.45;;;;;;;11.29;49.53;94961.47;4992816;28;20406;-79
2023/03/26 09:07:23;;;;;;;4.63;3.38;;;;;;;11.25;49.31;94952.50;4950791;28;20077;-79
2023/03/26 09:10:01;;;;;;;9.32;4.07;;;;;;;11.36;49.88;94953.97;4962306;28;20089;-79
2023/03/26 09:12:42;;;;;;;5.43;3.30;;;;;;;11.39;49.22;94949.94;4986056;28;20177;-79
2023/03/26 09:15:35;;;;;;;6.80;3.25;;;;;;;11.37;48.72;94947.56;4971772;28;20173;-77
2023/03/26 09:18:40;;;;;;;8.23;2.90;;;;;;;11.34;47.34;94942.84;4986558;28;20041;-78
2023/03/26 09:21:12;;;;;;;4.43;2.88;;;;;;;11.49;46.62;94931.25;4982245;28;21776;-78
2023/03/26 09:24:21;;;;;;;6.38;2.65;;;;;;;11.56;46.34;94929.81;4987479;28;20077;-78
2023/03/26 09:27:17;;;;;;;8.05;3.33;;;;;;;11.63;47.00;94928.69;4990556;28;20121;-78
2023/03/26 09:29:55;;;;;;;4.38;2.67;;;;;;;11.72;47.18;94943.69;4992170;28;20041;-78
2023/03/26 09:32:51;;;;;;;5.55;3.35;;;;;;;11.67;46.52;94924.41;4978572;28;20046;-77
2023/03/26 09:35:42;;;;;;;4.30;3.20;;;;;;;11.56;47.44;94932.47;4992512;28;20109;-78
2023/03/26 09:38:23;;;;;;;7.30;3.33;;;;;;;11.66;46.42;94925.47;4990980;28;20058;-78
2023/03/26 09:41:01;;;;;;;5.73;3.10;;;;;;;11.77;45.74;94918.94;4991696;28;20386;-79
2023/03/26 09:43:36;;;;;;;5.18;2.55;;;;;;;11.84;46.38;94919.38;4977448;28;20396;-77
2023/03/26 09:46:16;;;;;;;5.45;2.50;;;;;;;11.88;44.55;94918.53;4980085;28;20053;-78
2023/03/26 09:49:20;;;;;;;6.60;3.00;;;;;;;11.92;45.49;94918.75;4991252;28;20092;-78
2023/03/26 09:52:01;;;;;;;5.28;2.58;;;;;;;11.97;45.08;94916.81;4911406;29;20585;-78
2023/03/26 09:54:29;;;;;;;;;;;;;;;11.98;46.53;94904.28;4983692;28;20689;-79
2023/03/26 09:57:40;;;;;;;3.75;2.35;;;;;;;11.89;44.19;94898.06;4992046;28;19926;-79
2023/03/26 10:00:22;;;;;;;9.57;3.08;;;;;;;12.06;44.28;94902.84;4890538;29;20071;-79
2023/03/26 10:02:56;;;;;;;6.93;2.53;;;;;;;12.06;43.75;94893.00;4984226;28;20124;-79
2023/03/26 10:05:26;;;;;;;2.70;2.13;;;;;;;12.13;43.96;94866.84;4991659;28;20085;-79
2023/03/26 10:08:19;;;;;;;3.55;2.17;;;;;;;12.87;41.88;94881.03;4992083;28;20165;-79
2023/03/26 10:11:05;;;;;;;7.05;2.35;;;;;;;14.02;41.23;94870.94;4970791;28;20034;-79
2023/03/26 10:13:54;;;;;;;5.57;2.25;;;;;;;14.66;39.36;94887.53;4988373;28;20088;-78
2023/03/26 10:16:40;;;;;;;2.55;1.80;;;;;;;15.60;37.15;94879.13;4951204;28;20042;-79
2023/03/26 10:19:34;;;;;;;2.85;1.77;;;;;;;15.94;35.19;94856.22;4972109;28;20030;-79
2023/03/26 10:22:18;;;;;;;3.35;1.70;;;;;;;16.16;34.77;94872.91;4991070;28;20036;-79
2023/03/26 10:25:04;;;;;;;2.78;1.60;;;;;;;16.42;34.01;94858.69;4973661;28;20042;-79
2023/03/26 10:27:52;;;;;;;2.40;1.55;;;;;;;16.84;32.77;94827.59;4991503;28;20445;-79
2023/03/26 10:30:50;;;;;;;5.85;1.90;;;;;;;17.82;31.71;94858.63;4980784;28;20117;-79
2023/03/26 10:33:27;;;;;;;3.08;1.30;;;;;;;17.73;30.91;94856.00;4971894;28;20103;-79
2023/03/26 10:36:06;;;;;;;10.40;4.95;;;;;;;17.95;30.23;94828.88;4973665;28;20121;-79
2023/03/26 10:38:49;;;;;;;5.40;2.15;;;;;;;16.68;32.11;94853.31;4990600;28;20413;-79
2023/03/26 10:41:52;;;;;;;5.80;1.60;;;;;;;16.54;33.30;94842.78;4991398;28;20104;-79
2023/03/26 10:44:48;;;;;;;2.67;1.73;;;;;;;17.52;32.20;94829.16;4970131;28;20498;-79
2023/03/26 10:47:31;;;;;;;3.33;1.35;;;;;;;17.77;31.42;94824.75;4990023;28;20037;-79
2023/03/26 10:50:22;;;;;;;1.55;1.45;;;;;;;17.62;30.94;94822.66;4978357;28;20088;-79
2023/03/26 10:52:58;;;;;;;1.67;1.52;;;;;;;18.26;30.45;94809.66;4969646;28;20541;-79
2023/03/26 10:55:33;;;;;;;2.88;1.40;;;;;;;18.51;29.87;94808.63;4986296;28;20038;-79
2023/03/26 10:58:14;;;;;;;1.73;1.40;;;;;;;17.78;29.59;94787.97;4990663;28;20042;-80
2023/03/26 11:00:49;;;;;;;2.45;1.40;;;;;;;18.25;29.32;94778.56;5004707;28;20041;-80
2023/03/26 11:03:53;;;;;;;2.55;1.33;;;;;;;18.35;29.55;94805.00;4969892;28;20433;-78
2023/03/26 11:06:34;;;;;;;2.78;1.50;;;;;;;18.52;28.74;94777.97;4990377;28;20030;-78
2023/03/26 11:09:03;;;;;;;1.80;1.30;;;;;;;18.17;28.89;94811.63;4990293;28;20034;-79
2023/03/26 11:11:55;;;;;;;2.45;1.38;;;;;;;18.29;28.09;94811.69;4969697;28;20030;-79
2023/03/26 11:14:40;;;;;;;2.90;1.27;;;;;;;17.93;28.32;94808.84;4986720;28;20034;-79
2023/03/26 11:17:20;;;;;;;2.28;1.33;;;;;;;18.20;28.12;94810.19;4976455;28;20055;-79
2023/03/26 11:19:56;;;;;;;3.17;1.13;;;;;;;18.09;28.00;94801.75;4990673;28;20065;-79
2023/03/26 11:22:37;;;;;;;3.47;1.15;;;;;;;17.50;28.65;94791.16;4990730;28;20150;-79
2023/03/26 11:25:16;;;;;;;3.80;1.33;;;;;;;17.84;27.73;94797.41;4990098;28;20045;-79
2023/03/26 11:28:04;;;;;;;1.90;1.10;;;;;;;18.15;27.62;94786.25;4990231;28;20045;-79
2023/03/26 11:30:50;;;;;;;2.08;1.30;;;;;;;17.76;27.07;94732.00;4990058;28;20038;-79
2023/03/26 11:33:21;;;;;;;2.10;1.10;;;;;;;18.27;26.48;94740.66;4972869;28;20034;-80
2023/03/26 11:35:54;;;;;;;1.95;1.40;;;;;;;17.93;27.01;94755.19;4989990;28;20030;-80
2023/03/26 11:38:31;;;;;;;3.03;1.02;;;;;;;18.33;27.63;94774.22;4969007;28;20050;-79
2023/03/26 11:41:00;;;;;;;4.05;1.20;;;;;;;18.53;27.28;94776.06;4971024;28;20391;-80
2023/03/26 11:43:34;;;;;;;1.92;1.20;;;;;;;18.23;27.30;94759.34;4965701;28;20038;-79
2023/03/26 11:46:07;;;;;;;3.28;1.10;;;;;;;18.02;27.68;94705.69;4967537;28;20113;-78
2023/03/26 11:48:47;;;;;;;2.75;1.27;;;;;;;18.20;27.43;94757.31;4973807;28;20027;-83
2023/03/26 11:51:30;;;;;;;2.47;1.10;;;;;;;17.80;27.40;94729.44;4956550;28;20030;-80
2023/03/26 11:53:56;;;;;;;3.00;0.90;;;;;;;17.79;27.15;94671.53;4970617;28;20365;-80
2023/03/26 11:56:30;;;;;;;1.48;1.00;;;;;;;18.65;26.52;94730.44;4968867;28;20065;-80
2023/03/26 11:59:17;;;;;;;1.38;1.00;;;;;;;17.94;25.72;94673.59;4969103;28;20069;-80
2023/03/26 12:01:49;;;;;;;1.83;0.98;;;;;;;18.24;26.06;94707.19;4994357;28;20026;-79
2023/03/26 12:04:17;;;;;;;3.47;1.10;;;;;;;17.29;27.73;94667.06;4971460;28;20030;-78
2023/03/26 12:06:58;;;;;;;2.67;1.13;;;;;;;17.73;27.28;94647.63;4968443;28;20019;-79